Last 6 Hours

Alpine-Roundhouse Top 7880'

15 Minute Data | America/Los_Angeles
as of 8/12/20 1:27 PM PDT
Date & Time Temp (°F) RH (%) Dew Pt (°F) Wet Bulb (°F) Wind Dir (°) Wind Spd (mph) Wind Gust (mph) WindChill (°F)
8/12/20 - 1315 67.8 22 27.5 47.2 NNE | 26 5.0 17.4 67.6
8/12/20 - 1300 67.4 23 28.5 47.4 NNE | 13 4.1 17.6 67.9
8/12/20 - 1245 67.5 25 30.2 47.9 NE | 36 4.7 14.9 67.8
8/12/20 - 1230 67.6 26 31.2 48.3 NE | 38 4.0 12.8 67.2
8/12/20 - 1215 67.5 25 30.9 48.2 ESE | 107 5.3 13.3 67.0
8/12/20 - 1200 67.0 26 30.7 47.9 NE | 36 4.9 15.9 67.0
8/12/20 - 1145 67.4 24 29.6 47.7 NE | 35 3.3 10.5 68.0
8/12/20 - 1130 67.9 25 30.3 48.1 N | 349 2.8 10.0 67.0
8/12/20 - 1115 65.9 25 29.6 47.0 ENE | 65 3.9 11.2 65.6
8/12/20 - 1100 65.0 27 29.9 46.9 NE | 52 4.8 15.7 65.3
8/12/20 - 1045 65.7 26 30.3 47.3 NNE | 22 3.2 10.4 65.3
8/12/20 - 1030 65.2 26 29.0 46.6 N | 5 3.8 13.4 64.8
8/12/20 - 1015 65.0 25 28.5 46.4 NE | 46 4.3 12.0 65.3
8/12/20 - 1000 65.5 25 29.2 46.8 N | 357 2.6 8.8 65.0
8/12/20 - 0945 64.5 26 29.0 46.3 N | 358 3.2 10.3 65.0
8/12/20 - 0930 65.0 26 29.3 46.6 N | 4 2.3 10.2 64.2
8/12/20 - 0915 64.0 26 28.6 46.0 NNE | 18 2.7 6.6 63.7
8/12/20 - 0900 63.1 26 27.3 45.2 N | 7 2.4 7.6 64.3
8/12/20 - 0845 63.8 26 28.5 45.9 NNE | 21 2.6 10.1 63.0
8/12/20 - 0830 62.5 26 27.5 45.0 NE | 36 3.6 11.9 62.4
8/12/20 - 0815 62.1 26 26.9 44.7 NE | 41 4.0 9.0 61.8
8/12/20 - 0800 61.3 27 27.1 44.4 NE | 52 4.5 12.3 61.8
8/12/20 - 0745 61.9 26 27.1 44.6 NE | 47 3.2 9.6 62.0
8/12/20 - 0730 62.3 27 27.7 45.0 N | 355 1.4 4.9 61.3
Max 67.9 27 31.2 48.3 - 5.3 17.6 68.0
Avg 65.1 26 28.9 46.6 - 3.6 11.5 65.0
Min 61.3 22 26.9 44.4 - 1.4 4.9 61.3